createdAt,value
2023-04-06T00:00:10.593Z,0.0000
2023-04-06T00:01:11.809Z,0.0000
2023-04-06T00:02:12.847Z,0.0000
2023-04-06T00:03:13.516Z,0.0000
2023-04-06T00:04:13.572Z,0.0000
2023-04-06T00:05:14.869Z,0.0000
2023-04-06T00:06:17.212Z,0.0000
2023-04-06T00:07:17.412Z,0.0000
2023-04-06T00:08:18.435Z,0.0000
2023-04-06T00:09:18.765Z,0.0000
2023-04-06T00:10:19.779Z,0.0000
2023-04-06T00:11:21.029Z,0.0000
2023-04-06T00:12:22.077Z,0.0000
2023-04-06T00:13:23.356Z,0.0000
2023-04-06T00:14:24.377Z,0.0000
2023-04-06T00:15:25.743Z,0.0000
2023-04-06T00:16:29.027Z,0.0000
2023-04-06T00:17:27.537Z,0.0000
2023-04-06T00:18:27.573Z,0.0000
2023-04-06T00:19:28.992Z,0.0000
2023-04-06T00:20:30.376Z,0.0000
2023-04-06T00:21:31.330Z,0.0000
2023-04-06T00:22:32.704Z,0.0000
2023-04-06T00:23:33.603Z,0.0000
2023-04-06T00:24:35.208Z,0.0000
2023-04-06T00:25:36.344Z,0.0000
2023-04-06T00:26:37.655Z,0.0000
2023-04-06T00:27:38.779Z,0.0000
2023-04-06T00:28:39.267Z,0.0000
2023-04-06T00:29:40.667Z,0.0000
2023-04-06T00:30:41.623Z,0.0000
2023-04-06T00:31:42.958Z,0.0000
2023-04-06T00:32:44.325Z,0.0000
2023-04-06T00:33:44.227Z,0.0000
2023-04-06T00:34:44.414Z,0.0000
2023-04-06T00:35:45.856Z,0.0000
2023-04-06T00:36:47.050Z,0.0000
2023-04-06T00:37:48.487Z,0.0000
2023-04-06T00:38:49.626Z,0.0000
2023-04-06T00:39:51.149Z,0.0000
2023-04-06T00:40:52.311Z,0.0000
2023-04-06T00:41:53.684Z,0.0000
2023-04-06T00:42:55.105Z,0.0000
2023-04-06T00:43:56.327Z,0.0000
2023-04-06T00:44:57.714Z,0.0000
2023-04-06T00:45:59.048Z,0.0000
2023-04-06T00:47:00.315Z,0.0000
2023-04-06T00:48:01.889Z,0.0000
2023-04-06T00:49:01.792Z,0.0000
2023-04-06T00:50:02.302Z,0.0000
2023-04-06T00:51:03.683Z,0.0000
2023-04-06T00:52:04.896Z,0.0000
2023-04-06T00:53:06.107Z,0.0000
2023-04-06T00:54:07.195Z,0.0000
2023-04-06T00:55:08.413Z,0.0000
2023-04-06T00:56:09.536Z,0.0000
2023-04-06T00:57:10.676Z,0.0000
2023-04-06T00:58:12.281Z,0.0000
2023-04-06T00:59:13.347Z,0.0000
2023-04-06T01:00:13.757Z,0.0000
2023-04-06T01:01:15.114Z,0.0000
2023-04-06T01:02:15.331Z,0.0000
2023-04-06T01:03:15.323Z,0.0000
2023-04-06T01:04:16.572Z,0.0000
2023-04-06T01:05:16.755Z,0.0000
2023-04-06T01:06:16.828Z,0.0000
2023-04-06T01:07:18.405Z,0.0000
2023-04-06T01:08:19.522Z,0.0000
2023-04-06T01:09:20.059Z,0.0000
2023-04-06T01:10:21.257Z,0.0000
2023-04-06T01:11:22.411Z,0.0000
2023-04-06T01:12:23.458Z,0.0000
2023-04-06T01:13:24.728Z,0.0000
2023-04-06T01:14:26.023Z,0.0000
2023-04-06T01:15:27.315Z,0.0000
2023-04-06T01:16:28.641Z,0.0000
2023-04-06T01:17:28.681Z,0.0000
2023-04-06T01:18:29.102Z,0.0000
2023-04-06T01:19:30.594Z,0.0000
2023-04-06T01:20:31.717Z,0.0000
2023-04-06T01:21:32.954Z,0.0000
2023-04-06T01:22:33.807Z,0.0000
2023-04-06T01:23:35.029Z,0.0000
2023-04-06T01:24:36.107Z,0.0000
2023-04-06T01:25:37.380Z,0.0000
2023-04-06T01:26:38.424Z,0.0000
2023-04-06T01:27:39.785Z,0.0000
2023-04-06T01:28:41.048Z,0.0000
2023-04-06T01:29:41.418Z,0.0000
2023-04-06T01:30:42.561Z,0.0000
2023-04-06T01:31:42.949Z,0.0000
2023-04-06T01:32:44.138Z,0.0000
2023-04-06T01:33:44.479Z,0.0000
2023-04-06T01:34:45.537Z,0.0000
2023-04-06T01:35:46.942Z,0.0000
2023-04-06T01:36:48.158Z,0.0000
2023-04-06T01:37:49.491Z,0.0000
2023-04-06T01:38:50.558Z,0.0000
2023-04-06T01:39:51.777Z,0.0000
2023-04-06T01:40:52.902Z,0.0000
2023-04-06T01:41:52.942Z,0.0000
2023-04-06T01:42:54.222Z,0.0000
2023-04-06T01:44:55.071Z,0.0000
2023-04-06T01:45:56.357Z,0.0000
2023-04-06T01:46:56.735Z,0.0000
2023-04-06T01:47:56.900Z,0.0000
2023-04-06T01:48:58.283Z,0.0000
2023-04-06T01:49:58.334Z,0.0000
2023-04-06T01:50:59.571Z,0.0000
2023-04-06T01:52:00.808Z,0.0000
2023-04-06T01:53:00.894Z,0.0000
2023-04-06T01:54:02.198Z,0.0000
2023-04-06T01:55:03.314Z,0.0000
2023-04-06T01:56:04.695Z,0.0000
2023-04-06T01:57:05.832Z,0.0000
2023-04-06T01:58:07.326Z,0.0000
2023-04-06T01:59:08.789Z,0.0000
2023-04-06T02:00:09.024Z,0.0000
2023-04-06T02:01:09.109Z,0.0000
2023-04-06T02:02:10.534Z,0.0000
2023-04-06T02:03:11.445Z,0.0000
2023-04-06T02:04:11.952Z,0.0000
2023-04-06T02:05:13.010Z,0.0000
2023-04-06T02:06:14.412Z,0.0000
2023-04-06T02:07:15.635Z,0.0000
2023-04-06T02:09:15.961Z,0.0000
2023-04-06T02:10:15.968Z,0.0000
2023-04-06T02:11:17.243Z,0.0000
2023-04-06T02:12:18.514Z,0.0000
2023-04-06T02:13:19.803Z,0.0000
2023-04-06T02:14:19.977Z,0.0000
2023-04-06T02:15:21.047Z,0.0000
2023-04-06T02:16:22.462Z,0.0000
2023-04-06T02:17:23.816Z,0.0000
2023-04-06T02:18:24.654Z,0.0000
2023-04-06T02:19:25.729Z,0.0000
2023-04-06T02:20:25.783Z,0.0000
2023-04-06T02:21:26.891Z,0.0000
2023-04-06T02:22:28.413Z,0.0000
2023-04-06T02:23:29.544Z,0.0000
2023-04-06T02:24:29.733Z,0.0000
2023-04-06T02:25:29.607Z,0.0000
2023-04-06T02:26:30.868Z,0.0000
2023-04-06T02:27:30.975Z,0.0000
2023-04-06T02:28:31.213Z,0.0000
2023-04-06T02:29:32.489Z,0.0000
2023-04-06T02:30:32.431Z,0.0000
2023-04-06T02:31:33.789Z,0.0000
2023-04-06T02:32:34.130Z,0.0000
2023-04-06T02:33:35.478Z,0.0000
2023-04-06T02:34:36.867Z,0.0000
2023-04-06T02:35:38.273Z,0.0000
2023-04-06T02:36:38.307Z,0.0000
2023-04-06T02:37:38.400Z,0.0000
2023-04-06T02:38:38.514Z,0.0000
2023-04-06T02:39:39.645Z,0.0000
2023-04-06T02:40:41.225Z,0.0000
2023-04-06T02:41:42.345Z,0.0000
2023-04-06T02:42:43.671Z,0.0000
2023-04-06T02:43:45.008Z,0.0000
2023-04-06T02:44:46.273Z,0.0000
2023-04-06T02:45:47.463Z,0.0000
2023-04-06T02:46:47.538Z,0.0000
2023-04-06T02:47:48.636Z,0.0000
2023-04-06T02:48:50.170Z,0.0000
2023-04-06T02:49:50.040Z,0.0000
2023-04-06T02:50:51.388Z,0.0000
2023-04-06T02:51:52.495Z,0.0000
2023-04-06T02:52:52.555Z,0.0000
2023-04-06T02:53:53.803Z,0.0000
2023-04-06T02:55:54.749Z,0.0000
2023-04-06T02:56:54.817Z,0.0000
2023-04-06T02:57:56.109Z,0.0000
2023-04-06T02:58:56.343Z,0.0000
2023-04-06T02:59:56.389Z,0.0000
2023-04-06T03:00:56.494Z,0.0000
2023-04-06T03:01:57.354Z,0.0000
2023-04-06T03:03:07.417Z,0.0000
2023-04-06T03:04:17.785Z,0.0000
2023-04-06T03:05:27.474Z,0.0000
2023-04-06T03:06:49.642Z,0.0000
2023-04-06T03:07:29.038Z,0.0000
2023-04-06T03:09:14.805Z,0.0000
2023-04-06T03:09:31.054Z,0.0000
2023-04-06T03:10:32.320Z,0.0000
2023-04-06T03:11:33.684Z,0.0000
2023-04-06T03:12:34.807Z,0.0000
2023-04-06T03:13:36.057Z,0.0000
2023-04-06T03:14:37.563Z,0.0000
2023-04-06T03:15:37.607Z,0.0000
2023-04-06T03:16:38.014Z,0.0000
2023-04-06T03:17:39.151Z,0.0000
2023-04-06T03:18:39.515Z,0.0000
2023-04-06T03:19:40.521Z,0.0000
2023-04-06T03:20:41.001Z,0.0000
2023-04-06T03:21:41.050Z,0.0000
2023-04-06T03:22:42.286Z,0.0000
2023-04-06T03:23:42.383Z,0.0000
2023-04-06T03:24:43.497Z,0.0000
2023-04-06T03:25:44.882Z,0.0000
2023-04-06T03:26:46.029Z,0.0000
2023-04-06T03:28:47.004Z,0.0000
2023-04-06T03:29:48.342Z,0.0000
2023-04-06T03:30:49.607Z,0.0000
2023-04-06T03:31:49.758Z,0.0000
2023-04-06T03:32:51.162Z,0.0000
2023-04-06T03:33:51.352Z,0.0000
2023-04-06T03:34:52.525Z,0.0000
2023-04-06T03:35:52.915Z,0.0000
2023-04-06T03:37:03.228Z,0.0000
2023-04-06T03:37:54.626Z,0.0000
2023-04-06T03:38:54.654Z,0.0000
2023-04-06T03:39:55.902Z,0.0000
2023-04-06T03:40:57.371Z,0.0000
2023-04-06T03:41:58.565Z,0.0000
2023-04-06T03:42:58.631Z,0.0000
2023-04-06T03:43:59.814Z,0.0000
2023-04-06T03:45:01.157Z,0.0000
2023-04-06T03:46:02.354Z,0.0000
2023-04-06T03:47:02.651Z,0.0000
2023-04-06T03:48:02.794Z,0.0000
2023-04-06T03:49:02.909Z,0.0000
2023-04-06T03:50:03.237Z,0.0000
2023-04-06T03:51:03.341Z,0.0000
2023-04-06T03:52:04.432Z,0.0000
2023-04-06T03:53:04.502Z,0.0000
2023-04-06T03:54:05.666Z,0.0000
2023-04-06T03:55:06.955Z,0.0000
2023-04-06T03:56:08.263Z,0.0000
2023-04-06T03:57:08.238Z,0.0000
2023-04-06T03:58:09.413Z,0.0000
2023-04-06T03:59:10.670Z,0.0000
2023-04-06T04:00:10.868Z,0.0000
2023-04-06T04:01:11.019Z,0.0000
2023-04-06T04:02:11.191Z,0.0000
2023-04-06T04:03:12.096Z,0.0000
2023-04-06T04:04:13.255Z,0.0000
2023-04-06T04:05:14.583Z,0.0000
2023-04-06T04:06:14.638Z,0.0000
2023-04-06T04:07:15.758Z,0.0000
2023-04-06T04:08:17.079Z,0.0000
2023-04-06T04:09:17.579Z,0.0000
2023-04-06T04:10:18.809Z,0.0000
2023-04-06T04:11:20.058Z,0.0000
2023-04-06T04:12:21.344Z,0.0000
2023-04-06T04:13:22.517Z,0.0000
2023-04-06T04:14:23.814Z,0.0000
2023-04-06T04:15:25.076Z,0.0000
2023-04-06T04:16:25.258Z,0.0000
2023-04-06T04:17:25.466Z,0.0000
2023-04-06T04:18:25.553Z,0.0000
2023-04-06T04:19:25.998Z,0.0000
2023-04-06T04:20:27.314Z,0.0000
2023-04-06T04:21:28.479Z,0.0000
2023-04-06T04:22:29.792Z,0.0000
2023-04-06T04:23:30.914Z,0.0000
2023-04-06T04:24:31.578Z,0.0000
2023-04-06T04:25:32.685Z,0.0000
2023-04-06T04:26:34.035Z,0.0000
2023-04-06T04:27:35.160Z,0.0000
2023-04-06T04:28:36.525Z,0.0000
2023-04-06T04:29:37.029Z,0.0000
2023-04-06T04:30:38.339Z,0.0000
2023-04-06T04:31:39.530Z,0.0000
2023-04-06T04:32:39.546Z,0.0000
2023-04-06T04:33:40.865Z,0.0000
2023-04-06T04:34:41.996Z,0.0000
2023-04-06T04:35:42.204Z,0.0000
2023-04-06T04:36:43.491Z,0.0000
2023-04-06T04:38:44.820Z,0.0000
2023-04-06T04:39:45.356Z,0.0000
2023-04-06T04:40:46.659Z,0.0000
2023-04-06T04:42:47.677Z,0.0000
2023-04-06T04:43:49.136Z,0.0000
2023-04-06T04:44:50.216Z,0.0000
2023-04-06T04:46:51.374Z,0.0000
2023-04-06T04:47:51.563Z,0.0000
2023-04-06T04:48:52.795Z,0.0000
2023-04-06T04:49:54.046Z,0.0000
2023-04-06T04:50:55.194Z,0.0000
2023-04-06T04:51:56.565Z,0.0000
2023-04-06T04:52:57.805Z,3.1395
2023-04-06T04:53:58.673Z,5.6250
2023-04-06T04:54:59.813Z,5.6250
2023-04-06T04:56:01.133Z,5.6250
2023-04-06T04:57:02.302Z,5.6250
2023-04-06T04:58:02.311Z,5.6250
2023-04-06T04:59:03.612Z,5.6250
2023-04-06T05:00:04.150Z,6.1607
2023-04-06T05:01:05.445Z,11.2500
2023-04-06T05:02:06.294Z,11.2500
2023-04-06T05:03:06.881Z,11.2500
2023-04-06T05:04:07.961Z,11.2500
2023-04-06T05:05:09.237Z,11.2500
2023-04-06T05:06:12.864Z,14.7820
2023-04-06T05:07:11.898Z,16.8750
2023-04-06T05:08:12.063Z,16.8750
2023-04-06T05:09:13.305Z,16.8750
2023-04-06T05:10:13.355Z,16.8750
2023-04-06T05:11:14.678Z,20.2762
2023-04-06T05:12:14.693Z,22.5000
2023-04-06T05:13:15.956Z,22.5000
2023-04-06T05:14:16.780Z,22.5000
2023-04-06T05:15:17.020Z,22.5000
2023-04-06T05:16:17.386Z,26.6518
2023-04-06T05:17:17.441Z,28.1250
2023-04-06T05:18:17.673Z,28.1250
2023-04-06T05:19:18.459Z,28.1250
2023-04-06T05:20:18.478Z,28.7946
2023-04-06T05:21:19.706Z,33.7500
2023-04-06T05:22:21.059Z,33.7500
2023-04-06T05:23:21.215Z,33.7500
2023-04-06T05:24:22.516Z,33.7500
2023-04-06T05:25:22.876Z,37.3661
2023-04-06T05:28:25.390Z,39.3750
2023-04-06T05:29:25.860Z,41.2500
2023-04-06T05:30:26.542Z,45.0000
2023-04-06T05:31:27.893Z,45.0000
2023-04-06T05:32:28.152Z,45.0000
2023-04-06T05:33:28.354Z,45.0000
2023-04-06T05:34:28.795Z,50.0893
2023-04-06T05:35:28.769Z,50.6250
2023-04-06T05:36:28.772Z,50.6250
2023-04-06T05:37:30.051Z,50.6250
2023-04-06T05:38:30.412Z,53.1696
2023-04-06T05:39:30.333Z,56.2500
2023-04-06T05:40:30.542Z,56.2500
2023-04-06T05:41:31.912Z,56.2500
2023-04-06T05:42:32.285Z,56.2500
2023-04-06T05:43:33.681Z,60.8285
2023-04-06T05:44:33.748Z,61.8750
2023-04-06T05:45:35.203Z,61.8750
2023-04-06T05:46:36.591Z,61.8750
2023-04-06T05:47:36.720Z,62.4107
2023-04-06T05:48:37.088Z,67.5000
2023-04-06T05:49:37.379Z,67.5000
2023-04-06T05:50:39.061Z,67.5000
2023-04-06T05:51:39.106Z,67.5000
2023-04-06T05:52:40.446Z,70.2471
2023-04-06T05:53:40.996Z,73.1250
2023-04-06T05:54:42.264Z,73.1250
2023-04-06T05:55:43.639Z,73.1250
2023-04-06T05:56:44.876Z,73.1250
2023-04-06T05:57:45.078Z,77.5446
2023-04-06T05:58:45.142Z,78.7500
2023-04-06T05:59:45.392Z,78.7500
2023-04-06T06:00:46.611Z,78.7500
2023-04-06T06:01:46.841Z,78.7500
2023-04-06T06:02:47.512Z,81.0268
2023-04-06T06:03:47.760Z,84.3750
2023-04-06T06:04:49.038Z,84.3750
2023-04-06T06:05:49.669Z,84.3750
2023-04-06T06:06:50.198Z,84.3750
2023-04-06T06:07:51.531Z,84.8983
2023-04-06T06:08:51.601Z,90.0000
2023-04-06T06:09:51.787Z,90.0000
2023-04-06T06:10:51.937Z,90.0000
2023-04-06T06:11:53.164Z,90.0000
2023-04-06T06:12:53.334Z,94.0179
2023-04-06T06:13:53.339Z,95.6250
2023-04-06T06:14:54.830Z,95.6250
2023-04-06T06:15:54.886Z,95.6250
2023-04-06T06:16:55.190Z,95.6250
2023-04-06T06:17:55.318Z,98.3036
2023-04-06T06:18:55.636Z,101.2500
2023-04-06T06:19:56.054Z,101.2500
2023-04-06T06:20:56.293Z,101.2500
2023-04-06T06:21:57.729Z,101.2500
2023-04-06T06:22:58.925Z,106.6134
2023-04-06T06:23:59.332Z,106.8750
2023-04-06T06:25:00.462Z,106.8750
2023-04-06T06:26:00.808Z,109.8214
2023-04-06T06:27:01.119Z,112.5000
2023-04-06T06:28:01.396Z,112.5000
2023-04-06T06:29:02.758Z,112.5000
2023-04-06T06:30:02.811Z,118.1250
2023-04-06T06:31:03.879Z,118.1250
2023-04-06T06:32:04.241Z,118.7946
2023-04-06T06:33:04.439Z,123.7500
2023-04-06T06:34:04.508Z,123.7500
2023-04-06T06:35:05.865Z,122.7035
2023-04-06T06:36:06.121Z,123.7500
2023-04-06T06:37:06.328Z,123.7500
2023-04-06T06:38:06.444Z,123.7500
2023-04-06T06:39:07.106Z,127.3661
2023-04-06T06:40:07.110Z,129.3750
2023-04-06T06:41:07.229Z,129.6429
2023-04-06T06:42:07.319Z,133.2589
2023-04-06T06:43:07.723Z,135.0000
2023-04-06T06:44:09.352Z,137.6163
2023-04-06T06:45:09.569Z,140.7589
2023-04-06T06:46:09.880Z,145.4464
2023-04-06T06:47:09.928Z,148.6607
2023-04-06T06:48:10.276Z,152.0089
2023-04-06T06:49:10.790Z,156.2946
2023-04-06T06:50:12.135Z,157.5000
2023-04-06T06:51:12.180Z,163.1250
2023-04-06T06:52:13.449Z,163.1250
2023-04-06T06:53:13.760Z,163.1250
2023-04-06T06:54:15.022Z,167.5727
2023-04-06T06:55:15.200Z,194.8661
2023-04-06T06:56:16.506Z,284.6512
2023-04-06T06:57:16.803Z,339.9107
2023-04-06T06:58:18.054Z,278.5029
2023-04-06T06:59:18.434Z,246.8304
2023-04-06T07:00:19.339Z,236.3906
2023-04-06T07:01:19.590Z,230.4911
2023-04-06T07:02:19.928Z,226.6071
2023-04-06T07:03:20.379Z,220.4464
2023-04-06T07:04:21.455Z,213.7500
2023-04-06T07:05:29.185Z,214.0461
2023-04-06T07:06:29.373Z,213.8839
2023-04-06T07:07:30.742Z,214.1424
2023-04-06T07:08:30.975Z,213.8839
2023-04-06T07:09:32.164Z,208.7791
2023-04-06T07:10:33.677Z,208.2558
2023-04-06T07:11:34.068Z,208.2589
2023-04-06T07:12:36.530Z,210.4018
2023-04-06T07:13:37.782Z,216.2355
2023-04-06T07:14:37.862Z,213.7500
2023-04-06T07:15:39.093Z,212.4419
2023-04-06T07:16:40.230Z,212.5446
2023-04-06T07:17:40.435Z,218.1696
2023-04-06T07:18:40.620Z,225.0000
2023-04-06T07:19:41.974Z,231.5407
2023-04-06T07:20:43.428Z,248.1541
2023-04-06T07:21:44.753Z,228.4012
2023-04-06T07:22:46.324Z,204.3314
2023-04-06T07:23:46.409Z,203.3036
2023-04-06T07:24:47.009Z,213.3482
2023-04-06T07:25:47.013Z,216.4286
2023-04-06T07:26:47.284Z,213.2143
2023-04-06T07:27:47.255Z,224.4643
2023-04-06T07:28:47.207Z,232.6339
2023-04-06T07:29:47.592Z,268.5268
2023-04-06T07:30:47.601Z,319.9554
2023-04-06T07:31:48.312Z,397.2321
2023-04-06T07:32:48.994Z,415.9821
2023-04-06T07:33:49.026Z,366.9643
2023-04-06T07:34:49.112Z,326.6518
2023-04-06T07:35:49.740Z,302.2768
2023-04-06T07:36:50.607Z,300.2679
2023-04-06T07:37:51.967Z,293.2849
2023-04-06T07:38:52.535Z,307.5000
2023-04-06T07:39:53.722Z,328.9286
2023-04-06T07:40:53.969Z,329.3304
2023-04-06T07:41:54.218Z,352.3661
2023-04-06T07:42:56.176Z,353.0357
2023-04-06T07:43:55.363Z,312.2561
2023-04-06T07:44:55.889Z,263.4375
2023-04-06T07:45:55.941Z,225.9375
2023-04-06T07:46:56.390Z,228.0804
2023-04-06T07:47:56.791Z,242.2768
2023-04-06T07:48:57.113Z,229.6875
2023-04-06T07:49:57.147Z,238.1250
2023-04-06T07:50:57.170Z,250.7143
2023-04-06T07:51:57.444Z,237.5893
2023-04-06T07:52:57.420Z,231.9643
2023-04-06T07:53:58.862Z,236.2500
2023-04-06T07:54:59.413Z,230.3571
2023-04-06T07:56:00.731Z,218.1977
2023-04-06T07:57:00.785Z,209.3304
2023-04-06T07:58:00.877Z,208.1250
2023-04-06T07:59:02.075Z,208.5268
2023-04-06T08:00:02.287Z,202.5000
2023-04-06T08:01:02.501Z,202.5000
2023-04-06T08:02:02.594Z,202.5000
2023-04-06T08:03:03.676Z,202.9018
2023-04-06T08:04:03.913Z,202.5000
2023-04-06T08:05:04.041Z,198.2469
2023-04-06T08:06:04.292Z,196.8750
2023-04-06T08:07:04.626Z,197.2768
2023-04-06T08:08:04.628Z,197.2768
2023-04-06T08:09:04.987Z,196.8750
2023-04-06T08:10:06.401Z,196.8750
2023-04-06T08:11:06.576Z,196.8750
2023-04-06T08:12:06.876Z,197.4107
2023-04-06T08:13:06.956Z,196.8750
2023-04-06T08:14:07.387Z,196.8750
2023-04-06T08:15:08.103Z,191.6518
2023-04-06T08:16:08.733Z,191.3839
2023-04-06T08:17:09.500Z,191.2500
2023-04-06T08:18:09.727Z,191.2500
2023-04-06T08:19:11.364Z,187.4564
2023-04-06T08:20:11.700Z,185.7589
2023-04-06T08:21:11.691Z,185.6250
2023-04-06T08:22:11.952Z,184.1518
2023-04-06T08:23:12.588Z,180.0000
2023-04-06T08:24:13.497Z,180.1339
2023-04-06T08:25:13.501Z,180.0000
2023-04-06T08:26:13.697Z,180.1339
2023-04-06T08:27:13.748Z,175.5804
2023-04-06T08:28:15.177Z,174.3750
2023-04-06T08:29:15.636Z,174.5089
2023-04-06T08:30:17.026Z,174.3750
2023-04-06T08:31:17.594Z,175.5804
2023-04-06T08:32:17.776Z,178.5268
2023-04-06T08:33:18.171Z,178.3929
2023-04-06T08:34:19.383Z,180.0000
2023-04-06T08:35:19.574Z,180.0000
2023-04-06T08:36:19.947Z,180.0000
2023-04-06T08:37:21.270Z,180.0000
2023-04-06T08:38:21.468Z,180.0000
2023-04-06T08:39:21.447Z,180.0000
2023-04-06T08:40:21.677Z,180.0000
2023-04-06T08:41:22.319Z,180.0000
2023-04-06T08:42:23.680Z,180.0000
2023-04-06T08:43:23.750Z,180.0000
2023-04-06T08:44:25.085Z,178.0378
2023-04-06T08:45:25.475Z,180.0000
2023-04-06T08:46:25.894Z,180.0000
2023-04-06T08:47:26.255Z,180.0000
2023-04-06T08:48:26.909Z,180.0000
2023-04-06T08:49:27.150Z,180.0000
2023-04-06T08:50:28.565Z,180.0000
2023-04-06T08:51:30.165Z,180.0000
2023-04-06T08:52:31.533Z,180.0000
2023-04-06T08:53:32.005Z,180.0000
2023-04-06T08:54:32.154Z,180.0000
2023-04-06T08:55:33.693Z,180.0000
2023-04-06T08:56:35.038Z,180.0000
2023-04-06T08:57:36.723Z,180.0000
2023-04-06T08:58:38.546Z,180.0000
2023-04-06T08:59:37.661Z,180.0000
2023-04-06T09:00:38.227Z,183.3482
2023-04-06T09:01:39.264Z,181.3393
2023-04-06T09:02:40.069Z,180.4018
2023-04-06T09:03:41.143Z,184.2531
2023-04-06T09:04:42.318Z,185.6250
2023-04-06T09:05:42.521Z,185.6250
2023-04-06T09:06:42.735Z,185.6250
2023-04-06T09:07:42.825Z,185.6250
2023-04-06T09:08:42.982Z,185.6250
2023-04-06T09:09:43.080Z,185.6250
2023-04-06T09:10:43.415Z,185.6250
2023-04-06T09:11:44.763Z,185.6250
2023-04-06T09:12:45.124Z,185.6250
2023-04-06T09:13:45.334Z,185.6250
2023-04-06T09:14:45.466Z,185.6250
2023-04-06T09:15:45.718Z,185.6250
2023-04-06T09:16:46.509Z,185.6250
2023-04-06T09:17:46.924Z,185.6250
2023-04-06T09:18:47.255Z,185.6250
2023-04-06T09:19:47.351Z,185.6250
2023-04-06T09:20:47.701Z,185.6250
2023-04-06T09:21:47.869Z,185.6250
2023-04-06T09:22:48.284Z,185.6250
2023-04-06T09:23:48.506Z,185.3571
2023-04-06T09:24:49.292Z,185.6250
2023-04-06T09:25:49.662Z,190.1786
2023-04-06T09:26:50.057Z,191.2500
2023-04-06T09:27:50.158Z,191.2500
2023-04-06T09:28:50.402Z,191.2500
2023-04-06T09:29:50.506Z,191.2500
2023-04-06T09:30:50.974Z,191.2500
2023-04-06T09:31:51.334Z,191.2500
2023-04-06T09:32:52.469Z,191.2500
2023-04-06T09:33:52.954Z,191.2500
2023-04-06T09:34:53.870Z,194.4643
2023-04-06T09:35:54.123Z,196.8750
2023-04-06T09:36:54.667Z,193.9286
2023-04-06T09:37:54.688Z,196.8750
2023-04-06T09:38:54.953Z,196.8750
2023-04-06T09:39:55.008Z,200.0893
2023-04-06T09:41:01.818Z,202.5000
2023-04-06T09:42:01.936Z,203.9732
2023-04-06T09:43:02.193Z,202.5000
2023-04-06T09:44:02.334Z,202.5000
2023-04-06T09:45:02.638Z,206.3839
2023-04-06T09:46:02.750Z,208.1250
2023-04-06T09:47:03.891Z,208.1250
2023-04-06T09:48:04.019Z,213.6058
2023-04-06T09:49:04.544Z,215.2591
2023-04-06T09:50:05.213Z,219.3750
2023-04-06T09:51:05.497Z,219.3750
2023-04-06T09:52:07.008Z,219.3750
2023-04-06T09:53:07.237Z,219.3750
2023-04-06T09:54:07.742Z,219.3750
2023-04-06T09:55:08.310Z,217.0982
2023-04-06T09:56:08.581Z,218.0357
2023-04-06T09:57:08.997Z,219.3750
2023-04-06T09:58:09.367Z,224.3304
2023-04-06T09:59:10.461Z,225.0000
2023-04-06T10:00:11.501Z,221.1161
2023-04-06T10:01:12.013Z,219.3750
2023-04-06T10:02:12.509Z,219.3750
2023-04-06T10:03:13.401Z,219.3750
2023-04-06T10:04:14.881Z,219.6429
2023-04-06T10:05:15.661Z,222.9911
2023-04-06T10:06:15.817Z,225.0000
2023-04-06T10:07:16.151Z,225.2679
2023-04-06T10:08:17.099Z,226.0887
2023-04-06T10:09:17.304Z,226.4732
2023-04-06T10:10:17.597Z,225.6696
2023-04-06T10:11:18.080Z,225.1339
2023-04-06T10:12:18.236Z,227.9464
2023-04-06T10:13:18.361Z,230.4911
2023-04-06T10:14:18.632Z,230.6250
2023-04-06T10:15:20.304Z,236.2500
2023-04-06T10:16:19.486Z,239.8558
2023-04-06T10:17:19.850Z,242.0089
2023-04-06T10:18:20.493Z,247.3661
2023-04-06T10:19:20.700Z,246.4286
2023-04-06T10:20:20.873Z,247.2321
2023-04-06T10:21:21.926Z,254.4643
2023-04-06T10:22:22.199Z,253.9286
2023-04-06T10:23:22.567Z,248.4375
2023-04-06T10:24:22.724Z,212.9464
2023-04-06T10:25:22.808Z,218.2500
2023-04-06T10:26:22.942Z,227.2768
2023-04-06T10:27:24.762Z,235.7143
2023-04-06T10:28:23.950Z,236.2500
2023-04-06T10:29:24.143Z,235.4464
2023-04-06T10:30:24.217Z,241.0714
2023-04-06T10:31:24.740Z,242.1429
2023-04-06T10:32:25.132Z,241.8750
2023-04-06T10:33:25.475Z,241.8750
2023-04-06T10:34:25.653Z,242.0089
2023-04-06T10:35:25.676Z,241.8750
2023-04-06T10:36:26.164Z,245.4911
2023-04-06T10:37:26.452Z,247.6339
2023-04-06T10:38:26.506Z,247.5000
2023-04-06T10:39:26.845Z,244.6189
2023-04-06T10:40:27.041Z,250.0446
2023-04-06T10:41:27.289Z,259.6875
2023-04-06T10:42:27.376Z,266.9196
2023-04-06T10:46:14.319Z,277.6442
2023-04-06T10:47:14.583Z,292.5000
2023-04-06T10:48:14.873Z,297.3750
2023-04-06T10:49:14.884Z,308.7500
2023-04-06T10:50:14.976Z,322.1250
2023-04-06T10:51:15.034Z,322.0000
2023-04-06T10:52:15.078Z,351.6250
2023-04-06T10:53:15.232Z,360.1250
2023-04-06T10:54:16.368Z,358.2881
2023-04-06T10:55:16.529Z,354.3750
2023-04-06T10:56:16.810Z,350.5000
2023-04-06T10:57:18.076Z,359.8777
2023-04-06T10:58:18.185Z,384.0000
2023-04-06T10:59:18.388Z,403.8750
2023-04-06T11:00:18.728Z,424.7500
2023-04-06T11:01:19.133Z,440.3125
2023-04-06T11:02:19.389Z,451.7500
2023-04-06T11:03:19.725Z,464.7500
2023-04-06T11:04:20.162Z,476.3750
2023-04-06T11:05:20.112Z,488.6250
2023-04-06T11:06:20.245Z,498.8750
2023-04-06T11:07:20.390Z,500.3750
2023-04-06T11:08:21.534Z,495.8560
2023-04-06T11:09:21.657Z,500.2500
2023-04-06T11:10:21.616Z,503.9062
2023-04-06T11:11:21.904Z,514.1250
2023-04-06T11:12:21.998Z,530.7500
2023-04-06T11:13:22.058Z,535.5000
2023-04-06T11:14:22.164Z,536.8750
2023-04-06T11:15:22.757Z,540.1250
2023-04-06T11:16:22.842Z,546.2500
2023-04-06T11:17:23.849Z,551.7500
2023-04-06T11:18:24.368Z,552.0000
2023-04-06T11:19:24.971Z,553.3750
2023-04-06T11:20:25.058Z,557.0000
2023-04-06T11:21:26.270Z,559.3207
2023-04-06T11:22:26.754Z,564.2898
2023-04-06T11:23:26.842Z,562.8750
2023-04-06T11:24:26.914Z,560.7500
2023-04-06T11:25:27.039Z,553.7500
2023-04-06T11:26:27.778Z,544.5000
2023-04-06T11:27:27.818Z,540.0000
2023-04-06T11:28:29.095Z,540.0000
2023-04-06T11:29:29.434Z,539.1250
2023-04-06T11:30:30.626Z,531.9293
2023-04-06T11:31:31.192Z,525.2500
2023-04-06T11:32:31.334Z,521.7500
2023-04-06T11:33:31.561Z,518.7500
2023-04-06T11:34:31.750Z,517.5000
2023-04-06T11:35:31.829Z,512.0000
2023-04-06T11:36:33.127Z,512.2585
2023-04-06T11:37:33.225Z,509.7500
2023-04-06T11:38:34.573Z,511.9973
2023-04-06T11:39:35.823Z,512.3641
2023-04-06T11:40:37.108Z,516.5217
2023-04-06T11:41:37.278Z,521.7500
2023-04-06T11:42:37.580Z,528.4883
2023-04-06T11:43:37.665Z,533.2500
2023-04-06T11:44:37.778Z,536.1250
2023-04-06T11:45:37.915Z,547.3750
2023-04-06T11:46:38.210Z,562.0000
2023-04-06T11:47:38.361Z,570.7500
2023-04-06T11:48:39.154Z,579.2500
2023-04-06T11:49:39.627Z,592.7500
2023-04-06T11:50:41.126Z,600.8967
2023-04-06T11:51:42.374Z,618.5054
2023-04-06T11:52:42.572Z,634.1250
2023-04-06T11:53:43.740Z,687.2500
2023-04-06T11:54:44.001Z,857.6250
2023-04-06T11:55:44.310Z,1085.7500
2023-04-06T11:56:44.542Z,1192.5000
2023-04-06T11:57:44.536Z,1100.8750
2023-04-06T11:58:45.501Z,953.1250
2023-04-06T11:59:46.659Z,920.5000
2023-04-06T12:00:47.613Z,979.1250
2023-04-06T12:01:47.591Z,1083.3750
2023-04-06T12:02:47.794Z,1060.6250
2023-04-06T12:03:49.101Z,953.2500
2023-04-06T12:04:49.441Z,1046.3778
2023-04-06T12:05:49.414Z,1014.0000
2023-04-06T12:06:49.638Z,1126.6250
2023-04-06T12:07:49.923Z,1356.5000
2023-04-06T12:08:50.298Z,1596.6964
2023-04-06T12:09:50.581Z,1892.1250
2023-04-06T12:10:50.658Z,1826.7500
2023-04-06T12:11:50.922Z,1688.5000
2023-04-06T12:12:51.086Z,1537.3750
2023-04-06T12:13:52.371Z,1488.7908
2023-04-06T12:14:52.553Z,1438.1250
2023-04-06T12:15:52.779Z,1499.5000
2023-04-06T12:16:53.374Z,1499.1250
2023-04-06T12:17:53.947Z,1727.6250
2023-04-06T12:18:54.128Z,2117.0000
2023-04-06T12:19:54.201Z,2099.3750
2023-04-06T12:20:55.207Z,2097.4219
2023-04-06T12:21:55.318Z,2203.6250
2023-04-06T12:22:55.476Z,2294.2500